Time;durP1;ratioP1;P1;durP2;ratioP2;P2;SDS_P1;SDS_P2;PMS_P1;PMS_P2;Temp;Humidity;BMP_temperature;BMP_pressure;BME280_temperature;BME280_humidity;BME280_pressure;Samples;Min_cycle;Max_cycle;Signal;HPM_P1;HPM_P2
2022/12/08 00:01:17;;;;;;;14.20;3.88;;;19.80;48.30;;;;;;5020751;28;20097;-75
2022/12/08 00:03:44;;;;;;;5.25;1.20;;;19.70;48.10;;;;;;5018107;28;20081;-69
2022/12/08 00:09:38;;;;;;;8.18;2.00;;;19.50;48.70;;;;;;5020489;28;20453;-69
2022/12/08 00:12:14;;;;;;;6.25;2.28;;;19.50;48.80;;;;;;5023691;28;20102;-68
2022/12/08 00:14:42;;;;;;;9.45;4.50;;;19.40;48.80;;;;;;5020316;28;20169;-68
2022/12/08 00:17:10;;;;;;;8.38;2.72;;;19.30;49.30;;;;;;5024603;28;20538;-68
2022/12/08 00:19:38;;;;;;;7.85;2.20;;;19.20;49.40;;;;;;5016701;28;20079;-69
2022/12/08 00:22:06;;;;;;;9.27;1.50;;;19.20;49.70;;;;;;5021361;28;20167;-68
2022/12/08 00:24:40;;;;;;;3.17;1.52;;;19.10;49.60;;;;;;5019912;28;20080;-67
2022/12/08 00:27:08;;;;;;;8.90;1.92;;;19.00;50.00;;;;;;5019077;28;20104;-66
2022/12/08 00:29:34;;;;;;;5.68;1.75;;;18.90;50.10;;;;;;5025191;28;20066;-66
2022/12/08 00:32:01;;;;;;;11.38;2.65;;;18.90;50.40;;;;;;5023986;28;20082;-70
2022/12/08 00:34:27;;;;;;;10.43;2.22;;;18.70;50.60;;;;;;5024161;28;20154;-66
2022/12/08 00:36:54;;;;;;;11.68;2.63;;;18.70;50.90;;;;;;5015669;28;20074;-68
2022/12/08 00:39:20;;;;;;;13.45;2.80;;;18.60;51.30;;;;;;5022464;28;20075;-70
2022/12/08 00:44:31;;;;;;;13.90;2.67;;;18.50;52.40;;;;;;5016559;28;20081;-67
2022/12/08 00:46:57;;;;;;;13.13;2.95;;;18.30;53.10;;;;;;5025152;28;20103;-68
2022/12/08 00:49:24;;;;;;;10.27;2.80;;;18.30;53.70;;;;;;5024431;28;20121;-66
2022/12/08 00:51:51;;;;;;;15.45;3.63;;;18.20;53.90;;;;;;5022972;28;20143;-67
2022/12/08 00:54:18;;;;;;;12.30;3.00;;;18.00;54.10;;;;;;5022406;28;20148;-69
2022/12/08 00:56:45;;;;;;;10.25;4.88;;;17.90;54.20;;;;;;5016439;28;20431;-70
2022/12/08 00:59:11;;;;;;;15.65;4.90;;;17.70;54.50;;;;;;5017844;28;20075;-70
2022/12/08 01:01:38;;;;;;;25.90;6.55;;;17.70;54.60;;;;;;5021069;28;20538;-68
2022/12/08 01:04:06;;;;;;;28.63;6.00;;;17.70;54.80;;;;;;5022539;28;20514;-68
2022/12/08 01:06:34;;;;;;;22.02;6.35;;;17.70;54.80;;;;;;5022021;28;20430;-67
2022/12/08 01:09:02;;;;;;;42.65;17.55;;;17.60;55.30;;;;;;5022975;28;20086;-70
2022/12/08 01:11:28;;;;;;;21.75;5.07;;;17.50;55.80;;;;;;5020392;28;20074;-67
2022/12/08 01:13:54;;;;;;;31.90;5.68;;;17.30;56.30;;;;;;5020461;28;20233;-68
2022/12/08 01:16:23;;;;;;;27.17;6.25;;;17.20;56.70;;;;;;5023061;28;20543;-69
2022/12/08 01:18:50;;;;;;;26.67;6.25;;;17.10;57.00;;;;;;5016903;28;20075;-68
2022/12/08 01:21:17;;;;;;;23.25;6.35;;;17.10;57.90;;;;;;5018932;28;20132;-66
2022/12/08 01:23:43;;;;;;;33.10;5.72;;;16.50;84.70;;;;;;5018907;28;20081;-71
2022/12/08 01:26:13;;;;;;;41.10;6.60;;;16.90;84.50;;;;;;5021157;28;20070;-69
2022/12/08 01:28:40;;;;;;;30.85;6.63;;;16.90;58.60;;;;;;5018926;28;20074;-70
2022/12/08 01:31:12;;;;;;;28.85;7.00;;;16.90;58.70;;;;;;5025008;28;20582;-68
2022/12/08 01:33:39;;;;;;;36.65;7.47;;;16.90;58.30;;;;;;5024613;28;20078;-68
2022/12/08 01:36:05;;;;;;;27.95;6.40;;;16.80;58.20;;;;;;5026008;28;20074;-68
2022/12/08 01:38:32;;;;;;;42.13;7.43;;;16.70;58.30;;;;;;5020023;28;20066;-69
2022/12/08 01:40:59;;;;;;;40.65;5.57;;;16.70;58.80;;;;;;5019108;28;20097;-70
2022/12/08 01:43:25;;;;;;;40.00;5.50;;;16.50;58.90;;;;;;5019220;28;20070;-69
2022/12/08 01:45:51;;;;;;;39.67;4.72;;;16.50;59.60;;;;;;5021414;28;20120;-72
2022/12/08 01:48:24;;;;;;;36.08;6.63;;;16.50;59.80;;;;;;5019719;28;20196;-69
2022/12/08 01:50:53;;;;;;;53.80;7.13;;;16.40;60.00;;;;;;5025689;28;20644;-71
2022/12/08 01:53:32;;;;;;;25.45;6.10;;;16.40;87.40;;;;;;5020051;28;20078;-68
2022/12/08 01:56:14;;;;;;;26.15;6.18;;;16.20;78.20;;;;;;5024915;28;20091;-68
2022/12/08 01:58:47;;;;;;;38.15;6.10;;;16.20;73.40;;;;;;5017057;28;20032;-69
2022/12/08 02:01:14;;;;;;;29.88;6.38;;;16.10;60.60;;;;;;5023075;28;20070;-71
2022/12/08 02:04:00;;;;;;;30.17;7.57;;;16.00;61.10;;;;;;5019408;28;20172;-69
2022/12/08 02:06:34;;;;;;;39.38;11.32;;;16.00;61.50;;;;;;5021318;28;20101;-67
2022/12/08 02:09:02;;;;;;;40.40;8.27;;;15.90;61.70;;;;;;5023425;28;20102;-69
2022/12/08 02:11:28;;;;;;;30.42;7.03;;;15.90;62.30;;;;;;5023672;28;20070;-68
2022/12/08 02:13:56;;;;;;;39.22;6.90;;;15.90;62.30;;;;;;5023131;28;20089;-69
2022/12/08 02:16:38;;;;;;;37.00;6.05;;;15.90;62.90;;;;;;5018579;28;20094;-69
2022/12/08 02:19:24;;;;;;;36.03;5.95;;;15.80;63.90;;;;;;5021890;28;20116;-70
2022/12/08 02:22:08;;;;;;;25.75;5.85;;;15.80;63.30;;;;;;5021012;28;20094;-69
2022/12/08 02:24:54;;;;;;;40.95;6.28;;;15.70;63.70;;;;;;5015501;28;20073;-70
2022/12/08 02:27:34;;;;;;;28.95;5.50;;;15.70;64.30;;;;;;5020649;28;20067;-67
2022/12/08 02:30:17;;;;;;;30.27;5.60;;;15.70;64.60;;;;;;5020806;28;20419;-70
2022/12/08 02:33:10;;;;;;;37.92;6.00;;;15.60;64.10;;;;;;5014451;28;20443;-68
2022/12/08 02:36:01;;;;;;;28.67;5.82;;;15.50;64.10;;;;;;5015860;28;20086;-69
2022/12/08 02:39:16;;;;;;;36.03;5.90;;;15.50;64.30;;;;;;5023305;28;20070;-67
2022/12/08 02:42:05;;;;;;;31.02;6.55;;;15.40;64.60;;;;;;4985698;28;20086;-69
2022/12/08 02:44:56;;;;;;;45.70;6.50;;;15.40;65.30;;;;;;5016957;28;20136;-67
2022/12/08 02:47:26;;;;;;;33.45;9.48;;;15.40;65.80;;;;;;5019410;28;20121;-70
2022/12/08 02:49:55;;;;;;;36.40;6.00;;;15.30;65.90;;;;;;5018743;28;20086;-71
2022/12/08 02:52:21;;;;;;;29.23;6.10;;;15.30;66.30;;;;;;5015398;28;20501;-71
2022/12/08 02:54:58;;;;;;;34.65;6.22;;;15.20;66.70;;;;;;5016688;28;20090;-68
2022/12/08 02:58:01;;;;;;;51.75;6.78;;;15.20;67.00;;;;;;5018171;28;20073;-70
2022/12/08 03:00:37;;;;;;;38.42;6.40;;;15.10;66.20;;;;;;5022535;28;20446;-72
2022/12/08 03:04:00;;;;;;;30.13;5.72;;;15.10;66.60;;;;;;5018069;28;20157;-70
2022/12/08 03:06:51;;;;;;;35.88;6.43;;;15.10;66.70;;;;;;4969613;28;20111;-69
2022/12/08 03:09:18;;;;;;;33.45;6.25;;;15.00;68.30;;;;;;4972875;28;20170;-68
2022/12/08 03:11:57;;;;;;;35.30;7.15;;;14.90;67.80;;;;;;4972428;28;20110;-70
2022/12/08 03:14:25;;;;;;;45.78;8.63;;;14.80;67.70;;;;;;4971644;28;20106;-69
2022/12/08 03:16:56;;;;;;;34.38;7.32;;;14.80;68.60;;;;;;4972970;28;20565;-71
2022/12/08 03:19:27;;;;;;;28.38;7.22;;;14.80;67.40;;;;;;4972222;28;20083;-71
2022/12/08 03:22:03;;;;;;;30.02;8.35;;;14.80;66.60;;;;;;4955969;28;20072;-69
2022/12/08 03:24:38;;;;;;;33.93;7.40;;;14.80;66.50;;;;;;4971576;28;20206;-69
2022/12/08 03:27:18;;;;;;;29.77;7.60;;;14.90;66.20;;;;;;4972718;28;20394;-68
2022/12/08 03:29:47;;;;;;;30.52;6.82;;;14.90;64.20;;;;;;4970473;28;20207;-69
2022/12/08 03:32:33;;;;;;;35.28;6.30;;;15.00;61.40;;;;;;4971030;28;20079;-69
2022/12/08 03:35:05;;;;;;;25.30;5.78;;;15.10;60.40;;;;;;4971982;28;20091;-69
2022/12/08 03:37:35;;;;;;;22.88;5.35;;;15.10;59.60;;;;;;5007209;28;20517;-68
2022/12/08 03:40:03;;;;;;;22.30;4.97;;;15.20;59.10;;;;;;5024545;28;20110;-69
2022/12/08 03:42:30;;;;;;;23.40;5.43;;;15.30;59.00;;;;;;5024398;28;20135;-68
2022/12/08 03:44:56;;;;;;;;;;;15.30;58.40;;;;;;5023371;28;20078;-70
2022/12/08 03:47:22;;;;;;;19.95;6.70;;;15.30;58.20;;;;;;5022160;28;19980;-68
2022/12/08 03:49:48;;;;;;;15.63;5.95;;;15.30;58.60;;;;;;5024939;28;20165;-71
2022/12/08 03:52:15;;;;;;;;;;;15.30;58.00;;;;;;5025799;28;20136;-69
2022/12/08 03:54:41;;;;;;;26.02;6.05;;;15.30;58.00;;;;;;5025045;28;20013;-69
2022/12/08 03:57:08;;;;;;;26.65;7.25;;;15.40;58.10;;;;;;5021725;28;20066;-69
2022/12/08 03:59:34;;;;;;;18.50;5.53;;;15.40;58.10;;;;;;5025499;28;20161;-67
2022/12/08 04:02:01;;;;;;;24.80;6.82;;;15.40;58.20;;;;;;5022424;28;20183;-67
2022/12/08 04:04:27;;;;;;;20.75;6.20;;;15.40;58.40;;;;;;5021139;28;20090;-68
2022/12/08 04:06:53;;;;;;;38.22;17.02;;;15.40;58.70;;;;;;5021453;28;20090;-72
2022/12/08 04:09:20;;;;;;;28.55;6.88;;;15.30;58.80;;;;;;5017727;28;20069;-70
2022/12/08 04:11:47;;;;;;;;;;;15.30;59.00;;;;;;5016289;28;20098;-70
2022/12/08 04:14:14;;;;;;;37.28;6.38;;;15.30;59.10;;;;;;5018174;28;20023;-67
2022/12/08 04:16:40;;;;;;;;;;;15.20;59.20;;;;;;5019865;28;20086;-70
2022/12/08 04:19:06;;;;;;;33.70;5.93;;;15.20;59.10;;;;;;5019988;28;19961;-69
2022/12/08 04:21:33;;;;;;;;;;;15.20;58.80;;;;;;5022959;28;20323;-68
2022/12/08 04:23:59;;;;;;;37.05;8.23;;;15.20;58.90;;;;;;5022904;28;20064;-68
2022/12/08 04:26:25;;;;;;;;;;;15.20;59.10;;;;;;5023936;28;20066;-69
2022/12/08 04:28:51;;;;;;;25.92;10.95;;;15.20;59.20;;;;;;5020266;28;20003;-68
2022/12/08 04:31:17;;;;;;;;;;;15.10;59.50;;;;;;5020893;28;20074;-67
2022/12/08 04:33:44;;;;;;;53.50;22.30;;;15.10;60.20;;;;;;5022264;28;20076;-67
2022/12/08 04:36:10;;;;;;;53.22;26.90;;;15.10;60.40;;;;;;5021565;28;20540;-68
2022/12/08 04:38:36;;;;;;;;;;;15.00;60.50;;;;;;5022811;28;20074;-67
2022/12/08 04:41:03;;;;;;;38.85;15.60;;;15.00;60.70;;;;;;5022211;28;20053;-67
2022/12/08 04:43:29;;;;;;;41.83;12.98;;;15.00;60.80;;;;;;5017341;28;20070;-67
2022/12/08 04:45:55;;;;;;;;;;;14.90;61.00;;;;;;5023776;28;20079;-69
2022/12/08 04:48:22;;;;;;;35.75;11.55;;;14.90;61.50;;;;;;5020776;28;19986;-66
2022/12/08 04:50:49;;;;;;;25.40;9.80;;;14.90;61.70;;;;;;5022169;28;20128;-67
2022/12/08 04:53:15;;;;;;;21.15;7.93;;;14.80;62.10;;;;;;5015613;28;20079;-68
2022/12/08 04:55:43;;;;;;;;;;;14.90;62.70;;;;;;5021320;28;20136;-70
2022/12/08 04:58:12;;;;;;;;;;;14.90;62.80;;;;;;5021420;28;19958;-68
2022/12/08 05:00:39;;;;;;;17.58;5.93;;;14.90;62.70;;;;;;5024053;28;20422;-67
2022/12/08 05:03:06;;;;;;;21.85;5.43;;;14.90;62.70;;;;;;5019122;28;20081;-67
2022/12/08 05:05:32;;;;;;;19.15;5.47;;;14.90;62.90;;;;;;5016514;28;20109;-66
2022/12/08 05:07:59;;;;;;;17.70;5.32;;;14.90;63.10;;;;;;5020253;28;20101;-67
2022/12/08 05:10:25;;;;;;;;;;;14.90;63.30;;;;;;5022161;28;20078;-68
2022/12/08 05:12:51;;;;;;;17.42;5.25;;;14.90;63.30;;;;;;5020265;28;19958;-68
2022/12/08 05:15:17;;;;;;;;;;;14.80;63.30;;;;;;5022856;28;20085;-67
2022/12/08 05:17:43;;;;;;;15.55;5.22;;;14.80;63.60;;;;;;5021093;28;20012;-68
2022/12/08 05:20:10;;;;;;;;;;;14.80;64.20;;;;;;5022269;28;20091;-69
2022/12/08 05:22:36;;;;;;;23.35;7.22;;;14.70;64.00;;;;;;5020995;28;20043;-67
2022/12/08 05:25:02;;;;;;;;;;;14.70;64.10;;;;;;5019087;28;20084;-67
2022/12/08 05:27:29;;;;;;;17.13;5.97;;;14.70;64.00;;;;;;5021990;28;19957;-67
2022/12/08 05:29:55;;;;;;;;;;;14.70;64.10;;;;;;5022832;28;20070;-67
2022/12/08 05:32:21;;;;;;;12.30;5.93;;;14.70;64.30;;;;;;5020904;28;19973;-66
2022/12/08 05:34:47;;;;;;;;;;;14.60;64.30;;;;;;5022344;28;20086;-66
2022/12/08 05:37:13;;;;;;;19.05;5.88;;;14.60;64.50;;;;;;5020609;28;20049;-66
2022/12/08 05:39:39;;;;;;;;;;;14.60;64.80;;;;;;5021894;28;20184;-68
2022/12/08 05:42:06;;;;;;;52.50;8.50;;;14.60;64.80;;;;;;5018245;28;19954;-68
2022/12/08 05:44:32;;;;;;;;;;;14.60;65.00;;;;;;5019965;28;20165;-68
2022/12/08 05:46:58;;;;;;;19.48;5.45;;;14.60;64.90;;;;;;5020598;28;19957;-67
2022/12/08 05:49:24;;;;;;;;;;;14.60;65.00;;;;;;5022680;28;20137;-68
2022/12/08 05:51:51;;;;;;;15.82;6.80;;;14.50;65.00;;;;;;5020380;28;20000;-68
2022/12/08 05:54:19;;;;;;;25.38;10.48;;;14.40;65.20;;;;;;5018967;28;20145;-67
2022/12/08 05:56:45;;;;;;;;;;;14.40;65.30;;;;;;5020474;28;20581;-68
2022/12/08 05:59:11;;;;;;;27.08;11.77;;;14.30;65.80;;;;;;5016081;28;20012;-68
2022/12/08 06:01:38;;;;;;;35.28;15.45;;;14.30;66.70;;;;;;5021017;28;20070;-67
2022/12/08 06:04:04;;;;;;;33.72;16.60;;;14.30;66.90;;;;;;5022076;28;20067;-66
2022/12/08 06:06:33;;;;;;;34.85;16.08;;;14.20;67.00;;;;;;5017996;28;20142;-66
2022/12/08 06:09:04;;;;;;;90.68;19.17;;;14.20;67.40;;;;;;5024278;28;20082;-66
2022/12/08 06:11:32;;;;;;;44.53;14.20;;;14.10;68.00;;;;;;5018854;28;20066;-66
2022/12/08 06:13:59;;;;;;;38.38;10.48;;;14.00;68.40;;;;;;5025086;28;20074;-66
2022/12/08 06:16:27;;;;;;;17.30;6.70;;;14.00;68.60;;;;;;5023790;28;20127;-66
2022/12/08 06:18:54;;;;;;;14.18;6.05;;;14.00;68.60;;;;;;5019899;28;20070;-68
2022/12/08 06:21:20;;;;;;;18.90;5.80;;;14.00;68.00;;;;;;5024438;28;20431;-70
2022/12/08 06:23:49;;;;;;;10.93;5.10;;;14.00;68.30;;;;;;5027067;28;20133;-68
2022/12/08 06:26:16;;;;;;;19.25;5.60;;;14.00;68.70;;;;;;5023716;28;20077;-67
2022/12/08 06:28:43;;;;;;;12.20;4.95;;;13.90;68.80;;;;;;5023094;28;20074;-69
2022/12/08 06:31:15;;;;;;;12.65;4.15;;;13.80;68.90;;;;;;5017499;28;20094;-71
2022/12/08 06:33:42;;;;;;;14.27;3.92;;;13.80;68.80;;;;;;5027063;28;20084;-71
2022/12/08 06:36:09;;;;;;;;;;;13.80;69.10;;;;;;5023219;28;20569;-70
2022/12/08 06:38:35;;;;;;;;;;;13.70;70.30;;;;;;5029323;28;20131;-71
2022/12/08 06:41:02;;;;;;;13.43;4.60;;;13.60;70.50;;;;;;5020817;28;20411;-69
2022/12/08 06:43:28;;;;;;;14.20;4.35;;;13.70;69.80;;;;;;5022820;28;20083;-68
2022/12/08 06:45:54;;;;;;;;;;;13.50;70.60;;;;;;5023354;28;20081;-69
2022/12/08 06:48:20;;;;;;;12.23;3.28;;;13.50;70.80;;;;;;5019975;28;20361;-68
2022/12/08 06:50:46;;;;;;;;;;;13.60;70.80;;;;;;5021933;28;20543;-69
2022/12/08 06:53:14;;;;;;;6.63;2.30;;;13.60;70.60;;;;;;5024808;28;19997;-71
2022/12/08 06:55:50;;;;;;;9.75;2.47;;;13.60;70.80;;;;;;5020722;28;20109;-68
2022/12/08 06:58:18;;;;;;;17.80;2.80;;;13.50;71.70;;;;;;5023860;28;20078;-70
2022/12/08 07:00:45;;;;;;;9.88;2.38;;;13.60;71.30;;;;;;5024202;28;20124;-70
2022/12/08 07:03:12;;;;;;;9.48;2.40;;;13.50;71.40;;;;;;5019133;28;20109;-69
2022/12/08 07:05:39;;;;;;;5.82;2.85;;;13.50;71.60;;;;;;5023706;28;20156;-68
2022/12/08 07:08:07;;;;;;;8.65;2.50;;;13.50;71.50;;;;;;5023086;28;20093;-68
2022/12/08 07:10:34;;;;;;;9.80;2.38;;;13.50;72.50;;;;;;5017918;28;20071;-69
2022/12/08 07:13:00;;;;;;;8.40;2.28;;;13.40;72.20;;;;;;5020289;28;20081;-70
2022/12/08 07:15:27;;;;;;;;;;;13.40;73.30;;;;;;5024858;28;20090;-70
2022/12/08 07:17:53;;;;;;;7.15;2.38;;;13.40;73.40;;;;;;5023286;28;19965;-70
2022/12/08 07:20:19;;;;;;;;;;;13.30;73.60;;;;;;5021590;28;20462;-67
2022/12/08 07:22:50;;;;;;;8.05;2.58;;;13.20;74.10;;;;;;5025945;28;20382;-71
2022/12/08 07:25:17;;;;;;;6.57;2.63;;;13.20;74.60;;;;;;5021411;28;20326;-69
2022/12/08 07:27:44;;;;;;;11.88;3.15;;;13.10;74.60;;;;;;5024904;28;20073;-69
2022/12/08 07:30:11;;;;;;;10.27;2.70;;;13.10;74.80;;;;;;5018962;28;20081;-70
2022/12/08 07:32:38;;;;;;;5.90;2.53;;;13.00;74.80;;;;;;5023857;28;20078;-69
2022/12/08 07:35:06;;;;;;;8.40;2.65;;;13.10;74.80;;;;;;5022388;28;20109;-70
2022/12/08 07:37:36;;;;;;;9.88;2.65;;;13.00;75.30;;;;;;5021727;28;20556;-69
2022/12/08 07:40:07;;;;;;;10.85;2.95;;;13.00;75.60;;;;;;5019336;28;20536;-68
2022/12/08 07:42:33;;;;;;;14.98;2.78;;;13.00;76.90;;;;;;5021767;28;20083;-69
2022/12/08 07:45:00;;;;;;;;;;;13.00;76.60;;;;;;5024997;28;20163;-68
2022/12/08 07:47:26;;;;;;;12.40;2.70;;;12.90;76.30;;;;;;5022934;28;19958;-69
2022/12/08 07:49:53;;;;;;;8.00;3.20;;;12.80;76.30;;;;;;5024108;28;20102;-69
2022/12/08 07:52:19;;;;;;;;;;;12.80;76.90;;;;;;5021062;28;20070;-70
2022/12/08 07:54:46;;;;;;;15.05;3.30;;;12.60;77.10;;;;;;5023061;28;20030;-69
2022/12/08 07:57:12;;;;;;;15.30;3.60;;;12.70;77.20;;;;;;5024197;28;20070;-70
2022/12/08 07:59:38;;;;;;;;;;;12.60;77.00;;;;;;5019358;28;20075;-70
2022/12/08 08:02:05;;;;;;;17.17;3.40;;;12.60;77.10;;;;;;5015758;28;19973;-72
2022/12/08 08:04:31;;;;;;;12.55;3.53;;;12.50;78.00;;;;;;5017527;28;20496;-69
2022/12/08 08:06:57;;;;;;;;;;;12.40;78.40;;;;;;5024040;28;20590;-68
2022/12/08 08:09:23;;;;;;;10.48;3.20;;;12.50;78.60;;;;;;5022319;28;20088;-68
2022/12/08 08:11:49;;;;;;;;;;;12.50;78.70;;;;;;5022476;28;20160;-69
2022/12/08 08:14:16;;;;;;;16.83;3.80;;;12.40;78.80;;;;;;5025537;28;20008;-68
2022/12/08 08:16:45;;;;;;;;;;;12.40;79.00;;;;;;5023580;28;20074;-70
2022/12/08 08:19:11;;;;;;;13.95;3.72;;;12.40;78.70;;;;;;5025384;28;20478;-70
2022/12/08 08:21:38;;;;;;;;;;;12.30;78.70;;;;;;5022401;28;20129;-71
2022/12/08 08:24:04;;;;;;;15.10;4.32;;;12.20;79.10;;;;;;5023036;28;19981;-69
2022/12/08 08:26:30;;;;;;;17.70;4.97;;;12.10;80.30;;;;;;5022700;28;20066;-68
2022/12/08 08:28:56;;;;;;;;;;;12.10;80.60;;;;;;5023118;28;20479;-67
2022/12/08 08:31:26;;;;;;;14.07;4.40;;;12.10;81.00;;;;;;5022933;28;19958;-70
2022/12/08 08:33:53;;;;;;;15.32;4.07;;;12.10;81.30;;;;;;5022959;28;20144;-69
2022/12/08 08:36:20;;;;;;;11.80;3.83;;;12.10;81.00;;;;;;5017255;28;20082;-67
2022/12/08 08:38:47;;;;;;;13.98;3.78;;;12.10;80.50;;;;;;5043468;28;20117;-69
2022/12/08 08:41:13;;;;;;;;;;;12.10;80.80;;;;;;5020252;28;20070;-70
2022/12/08 08:43:39;;;;;;;16.05;4.47;;;12.10;80.90;;;;;;5019729;28;20397;-73
2022/12/08 08:46:06;;;;;;;;;;;12.00;80.30;;;;;;5022022;28;20435;-68
2022/12/08 08:48:32;;;;;;;13.70;5.18;;;11.90;80.80;;;;;;5021188;28;20051;-70
2022/12/08 08:50:58;;;;;;;;;;;11.80;81.50;;;;;;5019666;28;20070;-69
2022/12/08 08:53:25;;;;;;;16.58;5.30;;;11.80;82.00;;;;;;5019151;28;20064;-73
2022/12/08 08:55:51;;;;;;;12.65;5.07;;;11.70;82.60;;;;;;5021468;28;20087;-71
2022/12/08 08:58:17;;;;;;;;;;;11.70;83.30;;;;;;5024788;28;20074;-71
2022/12/08 09:00:44;;;;;;;17.13;5.30;;;11.70;83.50;;;;;;5021858;28;20012;-69
2022/12/08 09:03:10;;;;;;;16.90;5.63;;;11.80;83.60;;;;;;5015897;28;20124;-69
2022/12/08 09:05:40;;;;;;;;;;;11.70;83.50;;;;;;5018935;28;20351;-71
2022/12/08 09:08:07;;;;;;;21.38;5.63;;;11.80;83.50;;;;;;5019762;28;19958;-71
2022/12/08 09:10:33;;;;;;;20.23;6.13;;;11.70;83.20;;;;;;5020058;28;20149;-74
2022/12/08 09:12:59;;;;;;;;;;;11.60;83.70;;;;;;5026428;28;20416;-71
2022/12/08 09:15:26;;;;;;;12.98;5.55;;;11.60;83.70;;;;;;5018879;28;20427;-68
2022/12/08 09:17:52;;;;;;;;;;;11.60;84.30;;;;;;5022898;28;20070;-69
2022/12/08 09:20:18;;;;;;;22.15;6.32;;;11.60;84.50;;;;;;5022043;28;19964;-68
2022/12/08 09:22:45;;;;;;;14.35;5.80;;;11.50;84.40;;;;;;5022046;28;20167;-69
2022/12/08 09:25:11;;;;;;;;;;;11.50;84.40;;;;;;5018241;28;20486;-68
2022/12/08 09:27:37;;;;;;;24.98;6.32;;;11.50;84.30;;;;;;5013312;28;19968;-71
2022/12/08 09:30:03;;;;;;;;;;;11.30;84.50;;;;;;5021771;28;20165;-71
2022/12/08 09:32:29;;;;;;;18.08;6.00;;;11.30;84.60;;;;;;5018788;28;19974;-68
2022/12/08 09:34:55;;;;;;;;;;;11.30;84.50;;;;;;5020970;28;20555;-71
2022/12/08 09:37:22;;;;;;;19.58;6.40;;;11.40;84.90;;;;;;5017226;28;19986;-70
2022/12/08 09:39:48;;;;;;;;;;;11.40;84.90;;;;;;5020535;28;20089;-69
2022/12/08 09:42:24;;;;;;;19.38;6.18;;;11.30;84.80;;;;;;5022633;28;20331;-70
2022/12/08 09:45:13;;;;;;;18.30;6.13;;;11.30;85.30;;;;;;5023132;28;20101;-69
2022/12/08 09:47:53;;;;;;;17.75;6.13;;;11.30;85.50;;;;;;5019893;28;20146;-69
2022/12/08 09:50:28;;;;;;;22.63;5.65;;;11.20;85.30;;;;;;5018832;28;20077;-67
2022/12/08 09:53:04;;;;;;;23.27;5.63;;;11.20;85.30;;;;;;5020054;28;20487;-69
2022/12/08 09:55:36;;;;;;;18.17;5.65;;;11.20;85.50;;;;;;5019408;28;20082;-70
2022/12/08 09:58:04;;;;;;;21.08;6.40;;;11.20;85.70;;;;;;5019442;28;20074;-70
2022/12/08 10:00:30;;;;;;;19.63;5.93;;;11.10;85.90;;;;;;5019245;28;20063;-71
2022/12/08 10:02:58;;;;;;;21.67;5.88;;;11.00;86.40;;;;;;5023981;28;20497;-71
2022/12/08 10:05:27;;;;;;;18.05;4.95;;;11.10;86.30;;;;;;5019841;28;20653;-71
2022/12/08 10:08:07;;;;;;;18.30;5.90;;;11.10;86.20;;;;;;5017105;28;20129;-71
2022/12/08 10:10:37;;;;;;;15.57;5.53;;;11.10;86.50;;;;;;5024349;28;21671;-67
2022/12/08 10:13:13;;;;;;;20.98;6.10;;;11.10;85.80;;;;;;5020870;28;20096;-68
2022/12/08 10:15:57;;;;;;;19.77;6.72;;;11.10;85.70;;;;;;5018575;28;20101;-69
2022/12/08 10:18:29;;;;;;;19.40;8.57;;;11.10;85.90;;;;;;5023587;28;20115;-69
2022/12/08 10:21:04;;;;;;;24.98;8.95;;;11.10;85.90;;;;;;5018098;28;20077;-70
2022/12/08 10:23:34;;;;;;;22.92;9.40;;;11.00;85.90;;;;;;5019415;28;20144;-67
2022/12/08 10:26:04;;;;;;;25.00;9.20;;;11.00;86.00;;;;;;5020073;28;20451;-67
2022/12/08 10:28:32;;;;;;;24.83;8.90;;;10.90;86.10;;;;;;5014195;28;20132;-68
2022/12/08 10:30:58;;;;;;;19.50;8.00;;;10.90;86.50;;;;;;5022741;28;20081;-68
2022/12/08 10:33:28;;;;;;;28.80;9.10;;;11.00;86.40;;;;;;5022124;28;20074;-68
2022/12/08 10:36:01;;;;;;;22.83;8.73;;;11.00;86.40;;;;;;5018699;28;20532;-68
2022/12/08 10:38:36;;;;;;;22.60;12.35;;;10.90;86.20;;;;;;5015895;28;20075;-69
2022/12/08 10:41:10;;;;;;;21.95;9.25;;;10.90;86.90;;;;;;5018374;28;20069;-70
2022/12/08 10:43:54;;;;;;;18.75;7.05;;;10.90;86.50;;;;;;5020637;28;20494;-69
2022/12/08 10:46:28;;;;;;;16.58;6.63;;;10.90;86.50;;;;;;5016636;28;20152;-69
2022/12/08 10:49:10;;;;;;;16.23;6.55;;;10.80;86.90;;;;;;5022367;28;20121;-70
2022/12/08 10:51:42;;;;;;;16.75;6.25;;;10.70;86.70;;;;;;5019998;28;20081;-71
2022/12/08 10:54:37;;;;;;;19.40;6.03;;;10.70;87.10;;;;;;5020269;28;20488;-69
2022/12/08 10:57:03;;;;;;;14.73;5.90;;;10.50;87.20;;;;;;5020100;28;20078;-69
2022/12/08 10:59:32;;;;;;;19.23;5.10;;;10.50;87.90;;;;;;5019403;28;20558;-69
2022/12/08 11:02:00;;;;;;;12.70;4.93;;;10.60;87.30;;;;;;5021945;28;20075;-70
2022/12/08 11:04:44;;;;;;;11.30;4.93;;;10.60;87.00;;;;;;5021777;28;20201;-68
2022/12/08 11:07:10;;;;;;;14.02;4.88;;;10.60;87.50;;;;;;5019605;28;20200;-68
2022/12/08 11:09:39;;;;;;;;;;;10.50;88.20;;;;;;5023078;28;20140;-68
2022/12/08 11:12:28;;;;;;;10.23;4.38;;;10.50;88.40;;;;;;5021223;28;20004;-69
2022/12/08 11:15:04;;;;;;;14.65;4.00;;;10.60;87.60;;;;;;5022220;28;20085;-70
2022/12/08 11:17:40;;;;;;;20.92;4.35;;;10.50;86.90;;;;;;5024471;28;20090;-70
2022/12/08 11:20:09;;;;;;;8.63;3.50;;;10.50;86.70;;;;;;5027617;28;20062;-69
2022/12/08 11:22:50;;;;;;;8.95;3.08;;;10.40;86.70;;;;;;5022754;28;20085;-70
2022/12/08 11:25:27;;;;;;;8.20;2.95;;;10.40;87.00;;;;;;5019575;28;20545;-68
2022/12/08 11:27:56;;;;;;;12.20;4.03;;;10.30;87.20;;;;;;5021662;28;20127;-71
2022/12/08 11:30:37;;;;;;;13.45;3.38;;;10.30;87.50;;;;;;5026601;28;20140;-69
2022/12/08 11:33:21;;;;;;;11.55;3.05;;;10.40;87.20;;;;;;5020077;28;20100;-71
2022/12/08 11:36:10;;;;;;;11.88;3.17;;;10.40;87.50;;;;;;5024203;28;20101;-70
2022/12/08 11:38:42;;;;;;;8.82;3.50;;;10.30;88.00;;;;;;5023393;28;20159;-69
2022/12/08 11:41:13;;;;;;;11.95;3.45;;;10.40;87.00;;;;;;5022104;28;20490;-70
2022/12/08 11:44:09;;;;;;;13.43;3.08;;;10.40;87.10;;;;;;5021394;28;20071;-69
2022/12/08 11:46:40;;;;;;;8.05;2.80;;;10.40;86.70;;;;;;5019844;28;20093;-70
2022/12/08 11:49:12;;;;;;;10.60;2.83;;;10.30;86.30;;;;;;5023665;28;20149;-69
2022/12/08 11:51:58;;;;;;;9.82;3.03;;;10.30;86.40;;;;;;5019612;28;20078;-70
2022/12/08 11:54:28;;;;;;;11.93;3.20;;;10.20;86.80;;;;;;5018534;28;20523;-71
2022/12/08 11:56:56;;;;;;;12.18;2.97;;;10.20;87.40;;;;;;5022911;28;20074;-71
2022/12/08 11:59:27;;;;;;;10.27;3.15;;;10.10;87.00;;;;;;5025935;28;20078;-68
2022/12/08 12:01:53;;;;;;;15.13;3.28;;;10.30;87.00;;;;;;5021903;28;20073;-68
2022/12/08 12:04:35;;;;;;;13.43;3.70;;;10.30;86.10;;;;;;5017161;28;20105;-71
2022/12/08 12:07:28;;;;;;;13.85;3.85;;;10.40;86.20;;;;;;5023775;28;20074;-68
2022/12/08 12:10:12;;;;;;;13.48;4.50;;;10.20;85.50;;;;;;5025200;28;20097;-69
2022/12/08 12:12:51;;;;;;;11.13;3.90;;;10.20;85.40;;;;;;5021451;28;20534;-69
2022/12/08 12:15:39;;;;;;;10.27;4.10;;;10.30;85.30;;;;;;5020962;28;20094;-67
2022/12/08 12:18:32;;;;;;;12.45;4.03;;;10.30;84.40;;;;;;5027767;28;20069;-70
2022/12/08 12:21:22;;;;;;;10.50;3.50;;;10.30;84.40;;;;;;5020780;28;20092;-69
2022/12/08 12:23:56;;;;;;;11.35;3.60;;;10.30;84.60;;;;;;5021115;28;20110;-70
2022/12/08 12:26:30;;;;;;;9.75;3.88;;;10.30;83.70;;;;;;5014647;28;20085;-71
2022/12/08 12:28:59;;;;;;;10.40;4.32;;;10.40;83.40;;;;;;5017301;28;20078;-69
2022/12/08 12:31:47;;;;;;;8.07;4.22;;;10.20;83.70;;;;;;5017758;28;20535;-71
2022/12/08 12:34:23;;;;;;;11.70;4.97;;;10.20;84.70;;;;;;5015828;28;20098;-69
2022/12/08 12:36:57;;;;;;;14.27;5.60;;;10.20;84.10;;;;;;5019491;28;20144;-68
2022/12/08 12:39:33;;;;;;;13.60;5.50;;;10.20;84.70;;;;;;5022590;28;20081;-68
2022/12/08 12:42:01;;;;;;;13.13;5.68;;;10.10;85.10;;;;;;5019838;28;20156;-70
2022/12/08 12:44:27;;;;;;;13.38;6.28;;;10.10;84.40;;;;;;5015573;28;20132;-70
2022/12/08 12:46:57;;;;;;;9.27;5.28;;;10.10;84.40;;;;;;5019323;28;20140;-70
2022/12/08 12:49:38;;;;;;;11.82;5.25;;;10.10;84.40;;;;;;5021402;28;20555;-68
2022/12/08 12:52:30;;;;;;;9.45;5.45;;;10.10;84.70;;;;;;5023419;28;20081;-69
2022/12/08 12:54:56;;;;;;;15.02;5.95;;;10.10;85.30;;;;;;5021257;28;20504;-70
2022/12/08 12:57:34;;;;;;;17.63;5.32;;;10.10;84.70;;;;;;5017933;28;20077;-70
2022/12/08 13:00:01;;;;;;;11.85;5.80;;;10.10;85.00;;;;;;5018796;28;20074;-68
2022/12/08 13:02:32;;;;;;;11.98;5.40;;;10.10;84.90;;;;;;5023218;28;20599;-68
2022/12/08 13:05:17;;;;;;;15.35;5.50;;;10.00;85.10;;;;;;5020558;28;20100;-69
2022/12/08 13:07:51;;;;;;;15.63;5.20;;;10.00;85.30;;;;;;5021696;28;20531;-70
2022/12/08 13:10:55;;;;;;;13.93;5.00;;;10.00;84.80;;;;;;5022443;28;20481;-68
2022/12/08 13:13:22;;;;;;;10.68;4.30;;;10.00;84.90;;;;;;4979904;28;20233;-70
2022/12/08 13:15:51;;;;;;;15.63;4.47;;;9.90;85.10;;;;;;4983880;28;20138;-70